Latest Weather Observations for Amberley

IDQ60901

Issued at 10:11 pm EST Friday 28 April 2017 (issued every 10 minutes, with the page automatically refreshed every 10 minutes)

About weather observations | Map of Brisbane area stations | Latest observations for Brisbane area | Other Formats
Station Details ID: 040004 Name: AMBERLEY AMO Lat: -27.63 Lon: 152.71 Height: 24.2 m
Data from the previous 72 hours. | See also: Recent months at Amberley
Date/Time
EST
Temp
°C
App
Temp
°C
Dew
Point
°C
Rel
Hum
%
Delta-T
°C
Wind Press
QNH
hPa
Press
MSL
hPa
Rain since
9am
mm
Dir  Spd
km/h
Gust
km/h
Spd
kts
Gust
kts
28/10:00pm 15.8 16.5 12.3 80 1.9 CALM 0 0 0 0 1018.3 1018.2 0.0
28/09:30pm 15.5 16.2 12.2 81 1.8 CALM 0 0 0 0 1018.2 1018.1 0.0
28/09:00pm 15.5 16.2 12.2 81 1.8 CALM 0 0 0 0 1018.1 1018.0 0.0
28/08:30pm 16.7 15.6 12.1 74 2.5 S 9 13 5 7 1017.9 1017.8 0.0
28/08:00pm 17.4 16.3 11.9 70 3.0 SW 9 13 5 7 1017.6 1017.5 0.0
28/07:30pm 17.6 16.5 12.0 69 3.1 SSW 9 13 5 7 1017.4 1017.3 0.0
28/07:00pm 17.8 15.9 11.8 68 3.3 S 13 19 7 10 1017.3 1017.2 0.0
28/06:30pm 18.0 15.7 11.8 67 3.4 S 15 19 8 10 1016.8 1016.7 0.0
28/06:00pm 19.4 16.0 11.4 60 4.4 SSE 20 28 11 15 1016.5 1016.4 0.0
28/05:30pm 19.8 16.6 11.2 57 4.7 SSE 19 26 10 14 1016.0 1015.9 0.0
28/05:00pm 20.8 16.9 10.7 52 5.5 S 22 30 12 16 1015.6 1015.5 0.0
28/04:30pm 21.3 17.8 10.9 51 5.7 S 20 30 11 16 1015.4 1015.3 0.0
28/04:00pm 22.5 18.2 10.7 47 6.5 SSE 24 32 13 17 1015.1 1015.0 0.0
28/03:30pm 22.5 18.1 10.5 46 6.6 S 24 32 13 17 1015.1 1015.0 0.0
28/03:00pm 22.2 17.0 10.3 46 6.5 SSE 28 37 15 20 1014.8 1014.7 0.0
28/02:30pm 24.2 19.0 10.2 41 7.7 S 28 37 15 20 1014.8 1014.7 0.0
28/02:00pm 22.9 17.6 9.8 43 7.1 SSE 28 41 15 22 1014.5 1014.4 0.0
28/01:30pm 23.9 19.9 10.3 42 7.5 S 22 32 12 17 1014.6 1014.5 0.0
28/01:00pm 24.5 18.6 10.4 41 7.8 S 32 39 17 21 1014.8 1014.7 0.0
28/12:37pm 23.8 17.7 9.9 41 7.6 S 32 44 17 24 1014.8 1014.7 0.0
28/12:30pm 23.1 17.0 9.9 43 7.2 S 32 41 17 22 1014.9 1014.8 0.0
28/12:00pm 23.9 19.7 9.8 40 7.7 S 22 33 12 18 1015.2 1015.1 0.0
28/11:30am 22.9 19.6 9.4 42 7.3 S 17 33 9 18 1015.6 1015.5 0.0
28/11:00am 20.8 18.5 9.1 47 6.2 SW 11 20 6 11 1016.1 1016.0 0.0
28/10:30am 19.7 17.1 7.8 46 6.1 WSW 11 17 6 9 1016.9 1016.8 0.0
28/10:00am 19.2 16.9 7.6 47 5.9 W 9 15 5 8 1017.3 1017.2 0.0
28/09:30am 17.3 14.4 8.0 54 4.7 WNW 13 19 7 10 1017.5 1017.4 0.0
28/09:00am 15.2 12.7 8.0 62 3.6 NW 11 15 6 8 1017.6 1017.5 -
28/08:30am 14.2 12.0 8.0 66 3.1 NW 9 15 5 8 1017.7 1017.6 -
28/08:00am 12.3 12.0 8.5 77 1.9 CALM 0 0 0 0 1017.4 1017.3 -
28/07:30am 10.6 10.3 8.8 89 0.9 CALM 0 0 0 0 1017.1 1017.0 -
28/07:00am 9.4 9.0 8.2 92 0.6 CALM 0 0 0 0 1016.5 1016.4 -
28/06:30am 7.5 6.7 6.6 94 0.4 CALM 0 0 0 0 1016.2 1016.1 -
28/06:00am 7.3 6.5 6.4 94 0.4 CALM 0 0 0 0 1015.8 1015.7 -
28/05:30am 7.5 6.7 6.4 93 0.5 CALM 0 0 0 0 1015.4 1015.3 -
28/05:00am 8.2 7.5 6.9 91 0.6 CALM 0 0 0 0 1015.2 1015.1 -
28/04:30am 9.5 - 6.7 83 1.3 - - - - - 1014.6 1014.5 -
28/04:00am 9.1 8.5 7.4 89 0.8 CALM 0 0 0 0 1014.3 1014.2 -
28/03:30am 9.5 8.9 7.6 88 0.9 CALM 0 0 0 0 1014.2 1014.1 -
28/03:00am 9.8 9.2 7.5 85 1.1 CALM 0 0 0 0 1014.3 1014.2 0.0
28/02:30am 10.3 7.9 6.9 79 1.6 NNW 9 9 5 5 1014.5 1014.4 -
28/02:00am 11.0 9.0 7.0 76 1.9 NNW 7 9 4 5 1014.6 1014.5 -
28/01:30am 11.1 8.9 8.0 81 1.5 NNW 9 11 5 6 1015.1 1015.0 -
28/01:00am 11.4 9.0 8.6 83 1.4 NNW 11 13 6 7 1015.5 1015.4 -
28/12:30am 11.3 8.9 8.5 83 1.4 NNW 11 13 6 7 1015.7 1015.6 -
28/12:00am 10.8 8.7 8.1 83 1.3 NW 9 11 5 6 1015.6 1015.5 -
 
Date/Time
EST
Temp
°C
App
Temp
°C
Dew
Point
°C
Rel
Hum
%
Delta-T
°C
Wind Press
QNH
hPa
Press
MSL
hPa
Rain since
9am
mm
Dir  Spd
km/h
Gust
km/h
Spd
kts
Gust
kts
27/11:30pm 9.9 7.6 7.6 85 1.1 NW 9 11 5 6 1015.8 1015.7 -
27/11:00pm 10.6 8.3 7.5 81 1.5 NW 9 9 5 5 1015.8 1015.7 -
27/10:30pm 10.3 9.7 7.6 83 1.3 CALM 0 0 0 0 1015.7 1015.6 -
27/10:00pm 11.6 10.6 7.5 76 2.0 NW 2 9 1 5 1015.7 1015.6 -
27/09:30pm 11.2 9.0 7.7 79 1.7 NW 9 13 5 7 1015.4 1015.3 -
27/09:00pm 12.1 9.7 7.1 71 2.4 WNW 9 11 5 6 1015.5 1015.4 -
27/05:30pm 17.4 13.9 7.0 50 5.2 WSW 15 19 8 10 1013.3 1013.2 0.0
27/05:00pm 19.6 17.0 6.1 41 6.7 WSW 9 13 5 7 1012.7 1012.6 0.0
27/04:30pm 19.4 17.0 7.2 45 6.2 WSW 9 9 5 5 1012.6 1012.5 0.0
27/04:00pm 20.3 17.5 5.3 37 7.4 SSW 9 15 5 8 1012.4 1012.3 0.0
27/03:30pm 20.5 17.3 5.3 37 7.5 SSW 11 17 6 9 1011.9 1011.8 0.0
27/03:00pm 20.4 16.4 4.8 36 7.6 WNW 15 19 8 10 1011.9 1011.8 0.0
27/02:30pm 21.7 18.4 4.6 32 8.4 SW 11 22 6 12 1011.8 1011.7 0.0
27/02:00pm 21.6 18.0 4.8 33 8.3 SSW 13 20 7 11 1012.2 - 0.0
27/01:30pm 21.5 18.8 5.7 35 7.9 SW 9 19 5 10 1012.0 1011.9 0.0
27/01:00pm 21.0 17.4 5.2 35 7.8 SW 13 19 7 10 1012.5 1012.4 0.0
27/12:30pm 20.4 16.8 4.8 36 7.6 W 13 22 7 12 1012.7 1012.6 0.0
27/12:00pm 19.8 15.7 4.2 35 7.5 WSW 15 26 8 14 1013.1 1013.0 0.0
27/11:30am 19.9 15.9 4.9 37 7.3 SW 15 22 8 12 1013.6 1013.5 0.0
27/11:00am 19.0 15.0 4.7 39 6.9 W 15 24 8 13 1014.0 1013.9 0.0
27/10:30am 19.0 14.3 5.0 39 6.8 SW 19 24 10 13 1014.3 1014.2 0.0
27/10:00am 18.1 13.4 6.1 45 5.9 WNW 20 28 11 15 1014.4 1014.3 0.0
27/09:30am 17.5 13.0 6.3 47 5.5 WNW 19 26 10 14 1014.5 1014.4 0.0
27/09:00am 16.0 11.6 6.6 53 4.6 NW 19 28 10 15 1014.6 1014.5 2.4
27/08:30am 15.3 11.5 7.4 59 3.9 NW 17 26 9 14 1014.5 1014.4 2.4
27/08:00am 13.8 9.9 7.3 65 3.2 NNW 17 20 9 11 1014.1 1014.0 2.4
27/07:30am 12.6 9.1 7.0 68 2.7 N 15 19 8 10 1013.5 1013.4 2.4
27/07:00am 11.1 8.3 6.9 75 2.0 NNE 11 15 6 8 1013.1 1013.0 2.4
27/06:30am 11.1 8.5 6.2 72 2.3 WSW 9 17 5 9 1012.9 1012.8 2.4
27/06:00am 11.1 6.5 6.7 74 2.1 NW 20 28 11 15 1012.5 1012.4 2.4
27/05:30am 10.2 5.9 7.0 80 1.5 NW 19 26 10 14 1012.3 1012.2 2.4
27/05:00am 10.4 7.2 7.0 79 1.6 NNW 13 17 7 9 1012.2 1012.1 2.4
27/04:30am 10.5 7.5 7.8 83 1.3 NNW 13 15 7 8 1012.0 1011.9 2.4
27/04:00am 12.0 8.5 8.6 80 1.7 NW 17 20 9 11 1012.1 1012.0 2.4
27/03:30am 12.1 9.8 8.9 81 1.6 NNW 11 15 6 8 1012.0 1011.9 2.4
27/03:00am 12.4 9.8 9.4 82 1.5 WNW 13 17 7 9 1012.1 1012.0 2.4
27/02:30am 13.5 11.8 9.8 78 1.9 WNW 9 9 5 5 1012.3 1012.2 2.4
27/02:00am 14.1 12.5 10.3 78 2.0 NW 9 11 5 6 1012.3 1012.2 2.4
27/01:30am 13.4 12.1 11.1 86 1.2 NNE 9 13 5 7 1012.3 1012.2 2.4
27/01:00am 14.8 12.6 10.8 77 2.1 WNW 13 17 7 9 1012.1 1012.0 2.4
27/12:30am 14.7 12.1 11.9 83 1.5 WNW 17 19 9 10 1011.9 1011.8 2.4
27/12:00am 15.3 14.3 12.4 83 1.6 WNW 9 13 5 7 1011.7 1011.6 2.4
 
Date/Time
EST
Temp
°C
App
Temp
°C
Dew
Point
°C
Rel
Hum
%
Delta-T
°C
Wind Press
QNH
hPa
Press
MSL
hPa
Rain since
9am
mm
Dir  Spd
km/h
Gust
km/h
Spd
kts
Gust
kts
26/11:30pm 16.3 15.8 12.5 78 2.1 NNW 7 9 4 5 1011.5 1011.4 2.4
26/11:00pm 16.2 15.6 13.5 84 1.5 NW 9 11 5 6 1011.4 1011.3 2.4
26/10:30pm 16.1 15.2 13.6 85 1.4 WNW 11 13 6 7 1011.4 1011.3 2.4
26/10:00pm 17.4 15.9 14.3 82 1.8 WNW 15 15 8 8 1011.2 1011.1 2.4
26/09:30pm 18.1 17.3 15.2 83 1.7 W 13 17 7 9 1011.1 1011.0 2.4
26/09:00pm 18.6 18.4 16.6 88 1.2 W 13 15 7 8 1011.1 1011.0 2.4
26/08:30pm 19.2 19.7 17.4 89 1.1 WSW 11 17 6 9 1010.9 1010.8 2.4
26/08:00pm 19.2 19.4 17.6 90 1.0 W 13 17 7 9 1010.4 1010.3 2.4
26/07:30pm 18.9 19.5 17.6 92 0.8 NW 11 13 6 7 1009.9 1009.8 2.4
26/07:00pm 19.3 20.5 18.3 94 0.6 W 9 11 5 6 1009.7 1009.6 2.4
26/06:30pm 19.8 23.1 19.0 95 0.5 CALM 0 0 0 0 1009.2 1009.1 2.4
26/06:00pm 20.4 22.2 19.5 95 0.6 WNW 9 11 5 6 1009.1 1009.0 2.4
26/05:30pm 20.9 21.8 19.2 90 1.1 WSW 13 17 7 9 1009.1 1009.0 2.2
26/05:11pm 21.2 23.4 19.5 90 1.1 W 7 15 4 8 1009.1 1009.0 2.2
26/05:00pm 21.3 22.6 19.4 89 1.2 W 11 15 6 8 1008.7 1008.6 1.6
26/04:51pm 21.6 22.0 19.1 86 1.6 WSW 15 19 8 10 1008.9 1008.8 1.0
26/04:30pm 22.4 25.7 19.9 86 1.6 N 2 9 1 5 1008.3 1008.2 0.6
26/04:00pm 22.8 24.4 20.0 84 1.8 NNW 11 13 6 7 1008.3 1008.2 0.6
26/03:30pm 22.5 23.9 20.3 87 1.4 N 13 15 7 8 1008.3 1008.2 0.6
26/03:00pm 22.0 24.1 20.1 89 1.2 N 9 13 5 7 1008.4 1008.3 0.6
26/02:42pm 22.2 24.7 20.3 89 1.2 N 7 9 4 5 1008.8 1008.7 0.6
26/02:30pm 22.0 24.8 19.7 87 1.5 NNW 4 7 2 4 1009.2 1009.1 0.6
26/02:25pm 22.1 24.5 19.6 86 1.6 N 6 9 3 5 1009.2 1009.1 0.4
26/02:05pm 22.5 23.7 19.0 80 2.2 NW 11 13 6 7 1009.4 1009.3 0.2
26/02:00pm 22.5 23.8 19.2 81 2.1 NW 11 13 6 7 1009.3 1009.2 0.2
26/01:30pm 22.8 24.4 18.3 76 2.8 NNW 7 11 4 6 1009.4 1009.3 0.2
26/01:00pm 22.3 25.2 18.1 77 2.6 CALM 0 0 0 0 1009.8 1009.7 0.2
26/12:30pm 21.8 25.1 19.0 84 1.8 CALM 0 4 0 2 1010.4 1010.3 0.2
26/12:00pm 21.6 23.4 18.7 83 1.8 NNW 7 11 4 6 1010.9 1010.8 0.0
26/11:30am 21.6 21.8 17.7 78 2.4 NW 13 17 7 9 1011.7 1011.6 0.0
26/11:00am 21.8 24.4 17.4 76 2.7 CALM 0 2 0 1 1012.0 1011.9 0.0
26/10:30am 21.1 23.3 17.4 79 2.3 SE 2 7 1 4 1012.6 1012.5 0.0
26/10:00am 20.1 22.2 17.1 83 1.8 SSE 2 7 1 4 1013.2 1013.1 0.0
26/09:30am 19.3 19.6 17.0 86 1.4 S 11 13 6 7 1013.8 1013.7 0.0
26/09:00am 19.1 20.2 17.0 88 1.3 SSE 7 11 4 6 1013.5 1013.4 0.0
26/08:30am 18.7 21.1 16.9 89 1.1 CALM 0 0 0 0 1013.4 1013.3 0.0
26/08:00am 17.4 19.4 15.9 91 0.9 CALM 0 0 0 0 1013.5 1013.4 0.0
26/07:30am 16.4 17.0 15.2 93 0.7 SE 6 7 3 4 1013.7 1013.6 0.0
26/07:00am 15.9 15.4 14.9 94 0.6 SW 11 13 6 7 1013.7 1013.6 0.0
26/06:30am 15.0 16.4 14.3 96 0.4 CALM 0 0 0 0 1013.1 1013.0 0.0
26/06:00am 14.5 15.7 13.8 96 0.4 CALM 0 0 0 0 1013.2 1013.1 0.0
26/05:30am 14.9 16.2 14.2 96 0.4 CALM 0 0 0 0 1013.4 1013.3 0.0
26/05:00am 14.8 16.1 14.1 96 0.4 CALM 0 0 0 0 1013.4 1013.3 0.0
26/04:30am 14.3 15.4 13.4 94 0.5 CALM 0 0 0 0 1013.2 1013.1 0.0
26/04:00am 14.1 15.2 13.6 97 0.3 CALM 0 0 0 0 1013.0 1012.9 0.0
26/03:30am 13.8 14.8 13.1 96 0.4 CALM 0 0 0 0 1013.1 1013.0 0.0
26/03:00am 13.8 14.4 13.1 96 0.4 N 2 9 1 5 1013.2 1013.1 0.0
26/02:30am 13.8 13.4 13.1 96 0.4 NW 7 9 4 5 1013.4 1013.3 0.0
26/02:00am 13.7 13.9 13.2 97 0.3 SW 4 9 2 5 1013.4 1013.3 0.0
26/01:30am 14.8 15.3 14.1 96 0.4 SSW 4 7 2 4 1013.3 1013.2 0.0
26/01:00am 14.7 16.0 14.0 96 0.4 CALM 0 0 0 0 1013.7 1013.6 0.0
26/12:30am 15.2 16.6 14.3 94 0.5 CALM 0 0 0 0 1013.9 1013.8 0.0
26/12:00am 15.1 16.4 14.2 94 0.5 CALM 0 0 0 0 1014.3 1014.2 0.0
 
Date/Time
EST
Temp
°C
App
Temp
°C
Dew
Point
°C
Rel
Hum
%
Delta-T
°C
Wind Press
QNH
hPa
Press
MSL
hPa
Rain since
9am
mm
Dir  Spd
km/h
Gust
km/h
Spd
kts
Gust
kts
25/11:30pm 15.7 17.1 14.3 91 0.8 CALM 0 0 0 0 1014.3 1014.2 0.0
25/11:00pm 15.5 16.9 14.3 92 0.7 CALM 0 0 0 0 1014.6 1014.5 0.0
25/10:30pm 15.8 17.4 14.8 94 0.6 CALM 0 0 0 0 1014.7 1014.6 0.0

Latest Capital City Observations: Canberra | Sydney | Melbourne | Brisbane | Adelaide | Perth | Hobart | Darwin

Other Formats:

Comma delimited format used in spreadsheet applications
http://www.bom.gov.au/fwo/IDQ60901/IDQ60901.94568.axf

JavaScript Object Notation format (JSON) in row-major order
http://www.bom.gov.au/fwo/IDQ60901/IDQ60901.94568.json